Tuesday, January 23, 2018, 7:21 AM EST
Back to Local

KFMH, Otis Air National Guard Base

Location: Mashpee, MA, United States Lat: 41.65
Local Time: 7:21 AM EST (12:21 GMT) Lon: -70.517
Time Zone: US/Eastern Elev: 131 ft

Show me the last for .
Show Decoded

2018-01-23 06:55 METAR KFMH 231155Z AUTO 18015G21KT 10SM FEW005 BKN031 OVC037 08/08 A2996 RMK AO2
                 =
2018-01-23 06:35 METAR KFMH 231135Z AUTO 17014G22KT 10SM SCT005 BKN032 OVC075 08/08 A2996 RMK AO2
                 =
2018-01-23 06:15 METAR KFMH 231115Z AUTO 17015KT 10SM SCT004 BKN032 OVC070 08/08 A2995 RMK AO2 =
2018-01-23 05:55 METAR KFMH 231055Z AUTO 17013KT 3SM BR FEW004 BKN034 OVC065 08/08 A2998 RMK AO2
                 =
2018-01-23 05:35 METAR KFMH 231035Z AUTO 16010KT 6SM -DZ 07/07 A2999 RMK AO2 =
2018-01-23 05:15 METAR KFMH 231015Z AUTO RMK AO2 PWINO =
2018-01-23 04:55 METAR KFMH 230955Z AUTO 16008KT 7SM BKN003 OVC090 06/06 A3001 RMK AO2 =
2018-01-23 04:35 METAR KFMH 230935Z AUTO 17007KT 1SM BR OVC003 06/06 A3002 RMK AO2 =
2018-01-23 04:15 METAR KFMH 230915Z AUTO 17007KT 1/4SM FG OVC002 06/06 A3003 RMK AO2 =
2018-01-23 03:55 METAR KFMH 230855Z AUTO 16007KT 1/4SM FG OVC002 06/06 A3004 RMK AO2 =
2018-01-23 03:35 METAR KFMH 230835Z AUTO 15006KT 1/4SM FG OVC002 06/06 A3004 RMK AO2 =
2018-01-23 02:55 METAR KFMH 230755Z AUTO 14007KT 1/4SM FG OVC002 06/06 A3007 RMK AO2 =
2018-01-23 02:35 METAR KFMH 230735Z AUTO 15008KT 1/4SM FG OVC002 06/06 A3008 RMK AO2 =
2018-01-23 02:15 METAR KFMH 230715Z AUTO 16007KT 1/4SM FG OVC002 06/06 A3010 RMK AO2 =
2018-01-23 01:55 METAR KFMH 230655Z AUTO 15009KT 1SM BR OVC003 05/05 A3010 RMK AO2 =
2018-01-23 01:35 METAR KFMH 230635Z AUTO 16010KT 2 1/2SM BR OVC003 05/05 A3011 RMK AO2 =
2018-01-23 01:15 METAR KFMH 230615Z AUTO 17009KT 4SM BR OVC003 05/05 A3012 RMK AO2 =
2018-01-23 00:55 METAR KFMH 230555Z AUTO 15008KT 5SM BR OVC004 04/04 A3011 RMK AO2 =
2018-01-23 00:35 METAR KFMH 230535Z AUTO 14008G15KT 7SM 04/04 A3011 RMK AO2 =
2018-01-23 00:15 METAR KFMH 230515Z AUTO 15012KT 04/04 A3012 RMK AO2 PWINO =
2018-01-22 23:55 METAR KFMH 230455Z AUTO RMK AO2 PWINO FZRANO TSNO =
2018-01-22 23:35 METAR KFMH 230435Z AUTO A3014 RMK AO2 PWINO =
2018-01-22 23:15 METAR KFMH 230415Z AUTO 10SM SCT005 OVC011 RMK AO2 =
2018-01-22 22:55 METAR KFMH 230355Z AUTO 14011G18KT 9SM BKN004 OVC012 04/04 A3016 RMK AO2 =
2018-01-22 22:35 METAR KFMH 230335Z AUTO 13012KT 10SM SCT004 OVC012 04/04 A3017 RMK AO2 =
2018-01-22 22:15 METAR KFMH 230315Z AUTO 13012G17KT 9SM SCT005 OVC013 04/04 A3018 RMK AO2 =
2018-01-22 21:55 METAR KFMH 230255Z AUTO 12014G21KT 8SM BKN005 OVC014 04/04 A3019 RMK AO2 =
2018-01-22 21:35 METAR KFMH 230235Z AUTO 12016KT 8SM FEW005 OVC014 04/04 A3019 RMK AO2 =
2018-01-22 21:15 METAR KFMH 230215Z AUTO 12011G17KT 10SM SCT005 OVC014 04/04 A3020 RMK AO2 =
2018-01-22 20:55 METAR KFMH 230155Z AUTO 12015KT 10SM BKN004 OVC015 04/04 A3021 RMK AO2 =
2018-01-22 20:35 METAR KFMH 230135Z AUTO 11011G16KT 10SM OVC004 04/04 A3022 RMK AO2 =
2018-01-22 20:15 METAR KFMH 230115Z AUTO 11012G18KT 6SM BR OVC004 04/04 A3022 RMK AO2 =
2018-01-22 19:55 METAR KFMH 230055Z AUTO 11011KT 10SM OVC004 04/04 A3023 RMK AO2 =
2018-01-22 19:35 METAR KFMH 230035Z AUTO 11011G16KT 9SM OVC004 04/04 A3024 RMK AO2 =
2018-01-22 19:15 METAR KFMH 230015Z AUTO 10011KT 6SM BR OVC004 04/04 A3025 RMK AO2 =
2018-01-22 18:55 METAR KFMH 222355Z AUTO 10012KT 4SM BR OVC004 04/04 A3025 RMK AO2 =
2018-01-22 18:35 METAR KFMH 222335Z AUTO 09008KT 3SM BR OVC003 04/04 A3025 RMK AO2 =
2018-01-22 18:15 METAR KFMH 222315Z AUTO 09007KT 1 1/2SM BR OVC003 03/03 A3026 RMK AO2 =
2018-01-22 17:55 METAR KFMH 222255Z AUTO 08006KT 1 3/4SM BR OVC003 03/03 A3025 RMK AO2 =
2018-01-22 17:35 METAR KFMH 222235Z AUTO 08006KT 2SM BR OVC003 03/03 A3025 RMK AO2 =
2018-01-22 17:15 METAR KFMH 222215Z AUTO 07009KT 1 3/4SM BR OVC003 03/03 A3025 RMK AO2 =
2018-01-22 16:55 METAR KFMH 222155Z AUTO 07007KT 2 1/2SM BR OVC003 03/03 A3026 RMK AO2 =
2018-01-22 16:35 METAR KFMH 222135Z AUTO 07007KT 1 1/4SM BR OVC003 03/03 A3026 RMK AO2 =
2018-01-22 16:15 METAR KFMH 222115Z AUTO 06006KT 1SM BR OVC003 03/03 A3026 RMK AO2 =
2018-01-22 15:55 METAR KFMH 222055Z AUTO 06008KT 1SM BR OVC002 03/03 A3026 RMK AO2 =
2018-01-22 15:35 METAR KFMH 222035Z AUTO 06008KT 3/4SM BR OVC003 03/03 A3026 RMK AO2 =
2018-01-22 15:15 METAR KFMH 222015Z AUTO 06006KT 3/4SM BR OVC003 04/04 A3026 RMK AO2 =
2018-01-22 14:55 METAR KFMH 221955Z AUTO 03006KT 3/4SM BR OVC003 03/04 A3026 RMK AO2 =
2018-01-22 13:55 METAR KFMH 221855Z AUTO 10004KT 1 1/2SM BR OVC003 03/03 A3023 RMK AO2 =
2018-01-22 13:35 METAR KFMH 221835Z AUTO 11007KT 1 1/4SM BR OVC003 03/03 A3023 RMK AO2 =
2018-01-22 13:15 METAR KFMH 221815Z AUTO 07004KT 1SM BR OVC003 03/03 A3025 RMK AO2 =
2018-01-22 12:55 METAR KFMH 221755Z AUTO 07004KT 3/4SM BR OVC003 03/03 A3025 RMK AO2 =
2018-01-22 12:35 METAR KFMH 221735Z AUTO 06003KT 1/2SM BR OVC002 03/03 A3026 RMK AO2 =
2018-01-22 12:15 METAR KFMH 221715Z AUTO 07004KT 3/4SM BR OVC002 02/02 A3026 RMK AO2 =
2018-01-22 11:55 METAR KFMH 221655Z AUTO 06004KT 1/2SM BR OVC002 02/02 A3026 RMK AO2 =
2018-01-22 11:35 METAR KFMH 221635Z AUTO 00000KT 1/2SM BR OVC004 02/02 A3027 RMK AO2 =
2018-01-22 11:15 METAR KFMH 221615Z AUTO 06005KT 3/4SM BR OVC005 02/02 A3028 RMK AO2 =
2018-01-22 10:55 METAR KFMH 221555Z AUTO 06004KT 3/4SM BR SCT006 BKN016 BKN021 02/02 A3029 RMK
                 AO2 =
2018-01-22 10:35 METAR KFMH 221535Z AUTO 00000KT 1 1/4SM BR SCT014 BKN019 BKN025 02/02 A3030 RMK
                 AO2 =
2018-01-22 10:15 METAR KFMH 221515Z AUTO 08004KT 1 1/2SM BR BKN021 BKN025 02/02 A3029 RMK AO2 =
2018-01-22 09:55 METAR KFMH 221455Z AUTO 07004KT 2 1/2SM BR OVC021 02/02 A3030 RMK AO2 =
2018-01-22 09:35 METAR KFMH 221435Z AUTO 07003KT 4SM BR OVC020 02/02 A3029 RMK AO2 =
2018-01-22 09:15 METAR KFMH 221415Z AUTO 00000KT 5SM BR OVC019 02/02 A3028 RMK AO2 =
2018-01-22 08:55 METAR KFMH 221355Z AUTO 00000KT 5SM BR OVC019 02/01 A3027 RMK AO2 =
2018-01-22 08:35 METAR KFMH 221335Z AUTO 00000KT 4SM -DZ OVC019 02/01 A3026 RMK AO2 =
2018-01-22 08:15 METAR KFMH 221315Z AUTO 00000KT 4SM BR OVC023 02/01 A3025 RMK AO2 =
2018-01-22 07:55 METAR KFMH 221255Z AUTO 15003KT 4SM BR OVC023 02/01 A3024 RMK AO2 =
2018-01-22 07:35 METAR KFMH 221235Z AUTO 00000KT 6SM BR OVC024 01/01 A3024 RMK AO2 =

Support USWX by starting your Amazon purchase here.